createdAt,value
2022-12-04T03:18:18.905Z,28.50
2022-12-04T03:20:50.109Z,31.60
2022-12-04T03:23:24.435Z,31.65
2022-12-04T03:28:34.912Z,26.73
2022-12-04T03:31:06.680Z,29.77
2022-12-04T03:33:45.042Z,31.95
2022-12-04T03:36:20.116Z,30.35
2022-12-04T03:39:03.748Z,33.67
2022-12-04T03:42:01.067Z,30.77
2022-12-04T03:44:41.610Z,30.63
2022-12-04T03:47:14.895Z,29.83
2022-12-04T03:49:52.594Z,30.05
2022-12-04T03:52:44.753Z,29.92
2022-12-04T03:55:21.002Z,31.67
2022-12-04T03:57:51.254Z,27.73
2022-12-04T04:00:20.832Z,28.75
2022-12-04T04:02:59.545Z,32.08
2022-12-04T04:05:29.120Z,28.48
2022-12-04T04:08:21.451Z,30.05
2022-12-04T04:10:52.095Z,30.92
2022-12-04T04:13:41.685Z,29.80
2022-12-04T04:16:30.793Z,30.05
2022-12-04T04:19:18.264Z,32.53
2022-12-04T04:22:12.155Z,31.73
2022-12-04T04:25:02.339Z,29.92
2022-12-04T04:27:29.549Z,33.03
2022-12-04T04:29:57.104Z,32.20
2022-12-04T04:32:44.205Z,31.40
2022-12-04T04:35:20.428Z,30.77
2022-12-04T04:37:57.094Z,33.15
2022-12-04T04:40:31.219Z,31.10
2022-12-04T04:43:22.475Z,33.10
2022-12-04T04:46:19.228Z,31.38
2022-12-04T04:48:54.605Z,33.92
2022-12-04T04:51:22.528Z,31.50
2022-12-04T04:53:52.381Z,31.05
2022-12-04T04:56:21.109Z,30.40
2022-12-04T04:58:48.365Z,33.92
2022-12-04T05:01:18.447Z,32.28
2022-12-04T05:03:46.312Z,32.88
2022-12-04T05:06:14.944Z,32.25
2022-12-04T05:08:42.549Z,30.90
2022-12-04T05:11:14.059Z,32.20
2022-12-04T05:13:42.141Z,31.27
2022-12-04T05:16:14.348Z,32.97
2022-12-04T05:19:01.928Z,33.45
2022-12-04T05:21:29.665Z,34.05
2022-12-04T05:23:56.913Z,30.55
2022-12-04T05:26:24.190Z,31.63
2022-12-04T05:28:51.110Z,31.60
2022-12-04T05:31:18.357Z,31.10
2022-12-04T05:33:46.454Z,34.00
2022-12-04T05:36:14.253Z,33.42
2022-12-04T05:38:41.406Z,34.13
2022-12-04T05:41:08.914Z,32.45
2022-12-04T05:43:36.208Z,32.95
2022-12-04T05:46:08.130Z,31.33
2022-12-04T05:48:36.235Z,33.33
2022-12-04T05:51:10.428Z,33.92
2022-12-04T05:56:07.680Z,32.40
2022-12-04T05:58:41.047Z,31.67
2022-12-04T06:01:15.910Z,31.07
2022-12-04T06:03:43.279Z,33.30
2022-12-04T06:06:22.240Z,34.72
2022-12-04T06:08:51.500Z,33.55
2022-12-04T06:11:22.876Z,32.20
2022-12-04T06:13:51.065Z,32.58
2022-12-04T06:16:24.317Z,33.42
2022-12-04T06:18:52.901Z,32.40
2022-12-04T06:21:21.020Z,33.58
2022-12-04T06:23:48.641Z,32.60
2022-12-04T06:26:16.586Z,34.50
2022-12-04T06:28:44.229Z,33.08
2022-12-04T06:31:13.780Z,33.85
2022-12-04T06:33:41.172Z,31.48
2022-12-04T06:36:15.367Z,32.35
2022-12-04T06:38:45.084Z,32.80
2022-12-04T06:41:15.817Z,34.63
2022-12-04T06:43:45.878Z,34.03
2022-12-04T06:46:15.913Z,33.70
2022-12-04T06:48:43.414Z,31.77
2022-12-04T06:51:17.882Z,30.38
2022-12-04T06:53:45.439Z,34.40
2022-12-04T06:56:19.497Z,32.28
2022-12-04T06:58:49.361Z,31.25
2022-12-04T07:01:19.307Z,32.63
2022-12-04T07:03:51.614Z,31.63
2022-12-04T07:06:25.758Z,32.78
2022-12-04T07:09:09.981Z,32.63
2022-12-04T07:11:38.464Z,32.10
2022-12-04T07:14:05.614Z,32.60
2022-12-04T07:16:39.952Z,33.13
2022-12-04T07:19:10.311Z,33.45
2022-12-04T07:21:37.994Z,32.55
2022-12-04T07:24:06.004Z,29.92
2022-12-04T07:26:33.416Z,29.98
2022-12-04T07:29:12.589Z,33.35
2022-12-04T07:31:39.898Z,30.23
2022-12-04T07:34:07.512Z,33.47
2022-12-04T07:36:35.470Z,31.92
2022-12-04T07:39:02.701Z,30.95
2022-12-04T07:41:29.819Z,31.40
2022-12-04T07:43:57.633Z,31.10
2022-12-04T07:46:27.937Z,31.55
2022-12-04T07:48:57.355Z,28.95
2022-12-04T07:51:30.054Z,33.10
2022-12-04T07:54:03.281Z,32.25
2022-12-04T07:56:31.934Z,34.33
2022-12-04T07:59:00.388Z,30.17
2022-12-04T08:01:27.847Z,31.50
2022-12-04T08:03:57.856Z,31.00
2022-12-04T08:06:30.156Z,30.90
2022-12-04T08:08:57.689Z,30.10
2022-12-04T08:11:26.667Z,31.27
2022-12-04T08:14:14.153Z,31.98
2022-12-04T08:16:42.334Z,29.38
2022-12-04T08:19:10.370Z,31.60
2022-12-04T08:21:37.733Z,30.60
2022-12-04T08:24:06.502Z,29.40
2022-12-04T08:26:37.204Z,30.40
2022-12-04T08:29:07.775Z,31.63
2022-12-04T08:31:36.873Z,30.42
2022-12-04T08:34:07.506Z,31.00
2022-12-04T08:36:34.973Z,30.33
2022-12-04T08:39:02.639Z,28.77
2022-12-04T08:41:30.096Z,31.50
2022-12-04T08:44:01.134Z,30.88
2022-12-04T08:46:29.315Z,30.52
2022-12-04T08:48:56.975Z,30.05
2022-12-04T08:51:32.243Z,30.50
2022-12-04T08:54:04.756Z,32.40
2022-12-04T08:56:32.896Z,30.50
2022-12-04T08:59:02.333Z,29.55
2022-12-04T09:01:30.372Z,28.83
2022-12-04T09:04:01.759Z,27.77
2022-12-04T09:06:29.558Z,28.27
2022-12-04T09:08:58.534Z,28.52
2022-12-04T09:11:28.941Z,27.90
2022-12-04T09:13:56.803Z,28.17
2022-12-04T09:16:30.163Z,26.38
2022-12-04T09:18:59.862Z,27.65
2022-12-04T09:21:27.391Z,27.48
2022-12-04T09:23:59.052Z,27.33
2022-12-04T09:26:30.621Z,27.02
2022-12-04T09:29:01.050Z,26.13
2022-12-04T09:31:29.004Z,25.00
2022-12-04T09:33:59.217Z,27.98
2022-12-04T09:36:26.992Z,25.30
2022-12-04T09:38:58.558Z,23.77
2022-12-04T09:41:59.769Z,27.20
2022-12-04T09:44:37.234Z,23.75
2022-12-04T09:47:36.873Z,26.73
2022-12-04T09:50:16.951Z,24.42
2022-12-04T09:52:56.382Z,23.77
2022-12-04T09:55:32.684Z,24.10
2022-12-04T09:58:02.771Z,24.35
2022-12-04T10:00:31.969Z,24.20
2022-12-04T10:03:08.009Z,24.52
2022-12-04T10:05:44.402Z,24.40
2022-12-04T10:08:24.274Z,22.45
2022-12-04T10:11:15.579Z,24.55
2022-12-04T10:14:06.786Z,22.85
2022-12-04T10:16:58.942Z,23.75
2022-12-04T10:19:56.210Z,23.30
2022-12-04T10:22:29.788Z,22.23
2022-12-04T10:25:10.496Z,22.02
2022-12-04T10:27:55.703Z,22.45
2022-12-04T10:30:27.044Z,24.55
2022-12-04T10:33:01.440Z,22.65
2022-12-04T10:35:34.594Z,24.65
2022-12-04T10:38:11.259Z,22.17
2022-12-04T10:40:50.301Z,22.55
2022-12-04T10:43:42.649Z,20.65
2022-12-04T10:46:19.282Z,21.00
2022-12-04T10:48:49.723Z,20.70
2022-12-04T10:51:20.511Z,20.00
2022-12-04T10:53:49.649Z,20.40
2022-12-04T10:56:23.763Z,19.88
2022-12-04T10:59:03.803Z,19.75
2022-12-04T11:01:36.882Z,18.73
2022-12-04T11:04:11.228Z,18.17
2022-12-04T11:06:41.554Z,17.63
2022-12-04T11:09:20.595Z,17.42
2022-12-04T11:11:49.509Z,16.92
2022-12-04T11:14:24.892Z,16.27
2022-12-04T11:17:05.660Z,17.17
2022-12-04T11:19:36.850Z,17.40
2022-12-04T11:22:27.510Z,15.27
2022-12-04T11:24:59.273Z,15.38
2022-12-04T11:27:35.840Z,15.90
2022-12-04T11:30:14.030Z,13.60
2022-12-04T11:32:48.528Z,13.82
2022-12-04T11:35:25.342Z,16.20
2022-12-04T11:38:13.817Z,13.80
2022-12-04T11:40:53.285Z,14.70
2022-12-04T11:43:22.303Z,16.67
2022-12-04T11:45:58.082Z,14.38
2022-12-04T11:48:26.910Z,15.85
2022-12-04T11:51:12.967Z,14.50
2022-12-04T11:53:57.960Z,16.00
2022-12-04T11:56:27.525Z,15.45
2022-12-04T11:59:56.567Z,16.98
2022-12-04T12:03:17.528Z,16.17
2022-12-04T12:06:00.026Z,15.43
2022-12-04T12:08:36.613Z,14.45
2022-12-04T12:11:10.940Z,15.43
2022-12-04T12:13:48.312Z,14.65
2022-12-04T12:16:44.765Z,15.27
2022-12-04T12:19:45.671Z,15.85
2022-12-04T12:23:03.761Z,16.35
2022-12-04T12:26:18.481Z,15.50
2022-12-04T12:29:06.744Z,17.70
2022-12-04T12:31:45.386Z,15.50
2022-12-04T12:34:23.213Z,16.88
2022-12-04T12:36:56.429Z,16.42
2022-12-04T12:39:48.362Z,18.23
2022-12-04T12:42:25.086Z,17.25
2022-12-04T12:45:06.556Z,16.92
2022-12-04T12:47:48.845Z,21.05
2022-12-04T12:50:26.341Z,17.55
2022-12-04T12:52:59.099Z,17.42
2022-12-04T12:55:28.406Z,16.42
2022-12-04T12:58:20.943Z,17.67
2022-12-04T13:01:12.635Z,16.40
2022-12-04T13:03:54.259Z,17.52
2022-12-04T13:06:44.043Z,17.80
2022-12-04T13:09:36.867Z,16.85
2022-12-04T13:12:14.200Z,16.73
2022-12-04T13:14:48.684Z,16.33
2022-12-04T13:17:31.205Z,17.73
2022-12-04T13:20:06.806Z,17.65
2022-12-04T13:23:00.454Z,18.25
2022-12-04T13:25:28.049Z,17.05
2022-12-04T13:28:23.338Z,18.33
2022-12-04T13:31:09.374Z,17.80
2022-12-04T13:34:15.005Z,18.65
2022-12-04T13:36:56.137Z,18.50
2022-12-04T13:39:34.738Z,19.00
2022-12-04T13:42:05.556Z,19.15
2022-12-04T13:44:35.491Z,18.60
2022-12-04T13:47:07.106Z,20.45
2022-12-04T13:49:44.789Z,20.25
2022-12-04T13:52:36.180Z,19.08
2022-12-04T13:55:04.050Z,20.25
2022-12-04T13:57:32.205Z,21.77
2022-12-04T14:00:27.714Z,19.60
2022-12-04T14:03:01.147Z,19.85
2022-12-04T14:05:43.251Z,20.40
2022-12-04T14:08:19.903Z,19.88
2022-12-04T14:11:09.720Z,20.55
2022-12-04T14:13:53.150Z,20.92
2022-12-04T14:16:27.632Z,21.80
2022-12-04T14:19:00.813Z,22.05
2022-12-04T14:21:40.434Z,22.45
2022-12-04T14:24:29.978Z,22.45
2022-12-04T14:27:11.641Z,23.25
2022-12-04T14:29:52.544Z,24.38
2022-12-04T14:32:24.180Z,22.85
2022-12-04T14:34:52.225Z,22.67
2022-12-04T14:37:28.614Z,23.00
2022-12-04T14:39:57.898Z,19.90
2022-12-04T14:42:28.244Z,19.45
2022-12-04T14:45:07.397Z,19.55
2022-12-04T14:48:04.978Z,22.52
2022-12-04T14:50:42.148Z,20.55
2022-12-04T14:53:16.661Z,19.63
2022-12-04T14:56:02.184Z,18.20
2022-12-04T14:58:37.147Z,17.33
2022-12-04T15:01:29.975Z,19.65
2022-12-04T15:04:06.823Z,17.77
2022-12-04T15:06:35.470Z,19.35
2022-12-04T15:09:37.164Z,17.98
2022-12-04T15:12:34.605Z,21.42
2022-12-04T15:15:26.157Z,19.00
2022-12-04T15:18:02.647Z,19.40
2022-12-04T15:20:50.759Z,19.15
2022-12-04T15:23:40.972Z,21.02
2022-12-04T15:26:12.984Z,22.42
2022-12-04T15:28:52.134Z,23.65
2022-12-04T15:31:25.125Z,21.83
2022-12-04T15:33:57.133Z,24.02
2022-12-04T15:36:50.229Z,23.15
2022-12-04T15:39:24.679Z,20.58
2022-12-04T15:41:52.869Z,23.60
2022-12-04T15:44:35.329Z,23.15
2022-12-04T15:47:16.513Z,24.50
2022-12-04T15:49:54.776Z,22.13
2022-12-04T15:52:25.848Z,23.58
2022-12-04T15:55:06.630Z,22.95
2022-12-04T15:57:42.903Z,25.30
2022-12-04T16:00:27.567Z,28.35
2022-12-04T16:03:00.350Z,26.05
2022-12-04T16:05:36.923Z,26.05
2022-12-04T16:08:40.471Z,24.80
2022-12-04T16:11:24.917Z,25.42
2022-12-04T16:14:14.120Z,25.88
2022-12-04T16:16:51.338Z,27.65
2022-12-04T16:19:33.735Z,26.88
2022-12-04T16:22:10.874Z,27.58
2022-12-04T16:24:39.854Z,26.25
2022-12-04T16:27:17.378Z,26.00
2022-12-04T16:29:45.847Z,25.20
2022-12-04T16:32:16.352Z,26.17
2022-12-04T16:34:47.830Z,25.88
2022-12-04T16:37:22.805Z,26.33
2022-12-04T16:39:50.418Z,24.98
2022-12-04T16:42:20.554Z,25.70
2022-12-04T16:44:48.248Z,28.33
2022-12-04T16:47:16.371Z,27.55
2022-12-04T16:49:44.811Z,25.15
2022-12-04T16:52:12.660Z,24.25
2022-12-04T16:54:40.690Z,23.33
2022-12-04T16:57:10.671Z,27.92
2022-12-04T16:59:38.597Z,25.73
2022-12-04T17:02:17.730Z,25.80
2022-12-04T17:04:49.499Z,23.95
2022-12-04T17:07:20.764Z,26.25
2022-12-04T17:09:47.798Z,25.17
2022-12-04T17:12:14.879Z,27.83
2022-12-04T17:14:42.099Z,24.27
2022-12-04T17:17:10.256Z,25.35
2022-12-04T17:19:40.623Z,24.55
2022-12-04T17:22:08.572Z,24.70
2022-12-04T17:24:44.975Z,24.15
2022-12-04T17:27:15.458Z,24.77
2022-12-04T17:29:43.877Z,27.48
2022-12-04T17:32:11.226Z,25.42
2022-12-04T17:37:48.611Z,26.10
2022-12-04T17:40:27.032Z,24.85
2022-12-04T17:43:32.261Z,27.17
2022-12-04T17:46:05.365Z,26.38
2022-12-04T17:48:48.279Z,23.90
2022-12-04T17:51:27.505Z,23.55
2022-12-04T17:54:21.229Z,24.13
2022-12-04T18:02:48.726Z,24.08
2022-12-04T18:05:30.170Z,23.05
2022-12-04T18:08:08.080Z,23.05
2022-12-04T18:10:39.007Z,26.25
2022-12-04T18:13:13.889Z,24.88
2022-12-04T18:15:53.172Z,22.20
2022-12-04T18:18:28.691Z,23.75
2022-12-04T18:21:11.454Z,22.05
2022-12-04T18:24:07.325Z,26.75
2022-12-04T18:26:45.401Z,22.92
2022-12-04T18:29:18.048Z,23.88
2022-12-04T18:31:45.963Z,22.70
2022-12-04T18:34:13.504Z,24.33
2022-12-04T18:36:44.061Z,22.95
2022-12-04T18:39:26.073Z,24.05
2022-12-04T18:41:57.877Z,22.08
2022-12-04T18:44:25.234Z,22.67
2022-12-04T18:46:54.251Z,21.73
2022-12-04T18:49:25.339Z,21.67
2022-12-04T18:51:52.766Z,23.17
2022-12-04T18:54:24.316Z,23.63
2022-12-04T18:56:55.915Z,24.40
2022-12-04T18:59:26.588Z,22.70
2022-12-04T19:01:54.388Z,21.48
2022-12-04T19:04:23.361Z,22.90
2022-12-04T19:06:53.031Z,22.00
2022-12-04T19:09:47.375Z,23.77
2022-12-04T19:12:12.455Z,22.67
2022-12-04T19:14:40.173Z,22.95
2022-12-04T19:17:07.711Z,25.48
2022-12-04T19:19:34.890Z,23.17
2022-12-04T19:22:02.221Z,21.60
2022-12-04T19:24:29.520Z,22.35
2022-12-04T19:26:58.055Z,25.48
2022-12-04T19:29:25.872Z,23.75
2022-12-04T19:31:58.805Z,23.55
2022-12-04T19:34:29.542Z,24.90
2022-12-04T19:36:57.459Z,24.33
2022-12-04T19:39:24.760Z,23.10
2022-12-04T19:41:52.881Z,22.38
2022-12-04T19:47:09.775Z,23.88
2022-12-04T19:49:36.903Z,24.15
2022-12-04T19:52:04.269Z,23.77
2022-12-04T19:54:31.377Z,23.42
2022-12-04T19:56:58.629Z,22.83
2022-12-04T19:59:28.563Z,23.52
2022-12-04T20:01:58.984Z,23.02
2022-12-04T20:04:26.277Z,26.27
2022-12-04T20:06:53.777Z,23.90
2022-12-04T20:09:22.050Z,24.73
2022-12-04T20:11:52.663Z,23.38
2022-12-04T20:14:21.720Z,23.35
2022-12-04T20:16:50.249Z,24.15
2022-12-04T20:19:18.818Z,24.20
2022-12-04T20:21:47.295Z,23.13
2022-12-04T20:24:17.022Z,23.63
2022-12-04T20:26:47.341Z,22.80
2022-12-04T20:29:20.646Z,23.42
2022-12-04T20:31:51.847Z,24.30
2022-12-04T20:34:20.766Z,23.58
2022-12-04T20:36:49.877Z,25.45
2022-12-04T20:39:25.101Z,23.25
2022-12-04T20:41:52.874Z,22.98
2022-12-04T20:44:20.811Z,24.30
2022-12-04T20:46:51.162Z,23.40
2022-12-04T20:49:27.345Z,24.52
2022-12-04T20:51:54.814Z,25.05
2022-12-04T20:54:24.289Z,25.33
2022-12-04T20:56:56.411Z,25.65
2022-12-04T20:59:26.550Z,26.60
2022-12-04T21:01:59.348Z,24.20
2022-12-04T21:04:38.580Z,26.83
2022-12-04T21:07:11.661Z,25.65
2022-12-04T21:09:42.886Z,24.55
2022-12-04T21:12:29.577Z,23.42
2022-12-04T21:15:15.549Z,25.63
2022-12-04T21:17:47.402Z,25.52
2022-12-04T21:20:16.182Z,25.27
2022-12-04T21:22:43.346Z,25.65
2022-12-04T21:25:10.494Z,24.63
2022-12-04T21:27:40.251Z,24.35
2022-12-04T21:30:08.128Z,23.30
2022-12-04T21:32:35.078Z,25.70
2022-12-04T21:35:02.290Z,25.13
2022-12-04T21:37:29.264Z,24.77
2022-12-04T21:39:56.520Z,27.00
2022-12-04T21:42:34.089Z,26.50
2022-12-04T21:45:03.752Z,25.15
2022-12-04T21:47:31.381Z,26.20
2022-12-04T21:49:58.975Z,24.90
2022-12-04T21:52:26.120Z,24.98
2022-12-04T21:54:55.048Z,23.88
2022-12-04T21:57:22.719Z,26.13
2022-12-04T21:59:51.709Z,28.35
2022-12-04T22:02:19.361Z,25.55
2022-12-04T22:04:46.415Z,25.30
2022-12-04T22:07:13.974Z,23.08
2022-12-04T22:09:41.046Z,25.80
2022-12-04T22:12:33.318Z,26.92
2022-12-04T22:14:57.255Z,25.52
2022-12-04T22:17:29.747Z,26.10
2022-12-04T22:19:57.906Z,25.58
2022-12-04T22:22:25.213Z,25.05
2022-12-04T22:24:52.210Z,23.35
2022-12-04T22:27:19.160Z,21.40
2022-12-04T22:29:50.905Z,19.25
2022-12-04T22:32:20.310Z,18.38
2022-12-04T22:34:50.229Z,18.75
2022-12-04T22:37:17.875Z,18.73
2022-12-04T22:39:44.898Z,19.02
2022-12-04T22:42:12.073Z,16.83
2022-12-04T22:44:40.445Z,18.63
2022-12-04T22:47:07.815Z,18.88
2022-12-04T22:49:34.964Z,20.60
2022-12-04T22:52:05.122Z,20.52
2022-12-04T22:54:32.136Z,19.63
2022-12-04T22:56:59.110Z,20.55
2022-12-04T22:59:26.165Z,22.00
2022-12-04T23:01:53.219Z,20.80
2022-12-04T23:04:20.358Z,21.13
2022-12-04T23:06:47.363Z,21.67
2022-12-04T23:09:16.858Z,20.58
2022-12-04T23:11:44.088Z,20.70
2022-12-04T23:14:15.852Z,18.73
2022-12-04T23:16:43.148Z,19.48
2022-12-04T23:19:14.259Z,20.25
2022-12-04T23:21:41.687Z,19.00
2022-12-04T23:24:09.939Z,19.58
2022-12-04T23:26:40.233Z,20.67
2022-12-04T23:29:29.685Z,18.30
2022-12-04T23:31:54.596Z,19.33
2022-12-04T23:34:22.519Z,18.55
2022-12-04T23:36:49.472Z,19.95
2022-12-04T23:39:16.871Z,18.23
2022-12-04T23:41:43.819Z,19.98
2022-12-04T23:44:10.881Z,18.65
2022-12-04T23:46:38.038Z,20.30
2022-12-04T23:49:05.192Z,20.73
2022-12-04T23:51:32.350Z,19.73
2022-12-04T23:53:59.863Z,21.33
2022-12-04T23:56:28.362Z,19.05
2022-12-04T23:58:57.406Z,20.88
